Ljuta — J8B4127 — position and weather

sailwx.info

Track history (hours):
 
Tides and Currents Weather Stations Pressure Air Temp Water Temp Dewpoint Dewpoint Depression Visibility Wind Speed Wind Dir Waves Ship Positions

Ljuta

Last reported at 2016-Aug-29 21:18 UTC. Time now 2016-Aug-29 23:32 UTC.
Position N 35°45' W 000°36'.

Length 177 m; draft 9.7 m.

Type: Cargo ship. MMSI: 377715000.

Date/timePositionNaut miles runAvg speedWind from/ knotsBaromVisibWave heightAir tempDewpointWater temp
2016-Aug-29 21:18N 35°45' W 000°36'0 0.0
2016-Aug-29 17:06N 35°45' W 000°36'0 0.0
2016-Aug-29 16:09N 35°46' W 000°36'0 0.0
2016-Aug-29 15:24N 35°46' W 000°36'0 0.0
2016-Aug-29 14:18N 35°46' W 000°36'0 0.0
2016-Aug-29 13:33N 35°46' W 000°36'0 0.0
2016-Aug-29 10:27N 35°46' W 000°36'0 0.0
2016-Aug-29 09:30N 35°46' W 000°36'0 0.0
2016-Aug-29 06:10N 35°46' W 000°36'0 0.0
2016-Aug-29 04:03N 35°46' W 000°36'0 0.1
2016-Aug-29 03:33N 35°46' W 000°36'0 0.0
2016-Aug-29 00:03N 35°46' W 000°36'0 0.0
2016-Aug-28 23:33N 35°46' W 000°36'0 0.0
2016-Aug-28 22:33N 35°46' W 000°36'0 0.0
2016-Aug-28 21:33N 35°46' W 000°36'0 0.0
2016-Aug-28 20:33N 35°46' W 000°36'0 0.0
2016-Aug-28 19:33N 35°46' W 000°36'0 0.0
2016-Aug-28 18:33N 35°46' W 000°36'0 0.0
2016-Aug-28 17:06N 35°46' W 000°36'0 0.0
2016-Aug-28 16:33N 35°46' W 000°36'0 0.0
2016-Aug-28 15:30N 35°46' W 000°36'0 0.0
2016-Aug-28 14:27N 35°46' W 000°36'0 0.0
2016-Aug-28 11:27N 35°45' W 000°36'0 0.1
2016-Aug-28 10:27N 35°45' W 000°36'0 0.0
2016-Aug-28 09:33N 35°45' W 000°36'0 0.1
2016-Aug-28 07:33N 35°45' W 000°36'0 0.0
2016-Aug-28 06:33N 35°45' W 000°36'0 0.0
2016-Aug-28 05:27N 35°45' W 000°36'0 0.0
2016-Aug-28 02:33N 35°46' W 000°36'0 0.0
2016-Aug-28 01:33N 35°46' W 000°36'0 0.0
2016-Aug-28 00:21N 35°46' W 000°36'0 0.0
2016-Aug-27 23:33N 35°46' W 000°36'0 0.0
2016-Aug-27 20:24N 35°46' W 000°36'0 0.0
2016-Aug-27 19:12N 35°46' W 000°36'0 0.0
2016-Aug-27 12:30N 35°45' W 000°36'  
2016-Aug-24 21:08N 35°59' W 005°08'814.0
2016-Aug-24 20:34N 35°58' W 005°18'18910.9
2016-Aug-24 03:14N 36°32' W 009°08'912.6
2016-Aug-24 02:31N 36°35' W 009°19'1212.2
2016-Aug-24 01:33N 36°44' W 009°29'1212.1
2016-Aug-24 00:33N 36°54' W 009°35'1312.8
2016-Aug-23 23:33N 37°07' W 009°39'1313.1
2016-Aug-23 22:33N 37°20' W 009°43'1313.2
2016-Aug-23 21:33N 37°33' W 009°46'1312.9
2016-Aug-23 20:33N 37°45' W 009°50'1313.3
2016-Aug-23 19:33N 37°58' W 009°54'1313.1
2016-Aug-23 18:33N 38°11' W 009°58'1413.5
2016-Aug-23 17:33N 38°24' W 010°01'1313.3
2016-Aug-23 16:33N 38°37' W 010°05'1313.1
2016-Aug-23 15:33N 38°50' W 010°06'1413.2
2016-Aug-23 14:30N 39°04' W 010°07'1313.1
2016-Aug-23 13:33N 39°17' W 010°07'1413.4
2016-Aug-23 12:32N 39°30' W 010°06'16413.3
2016-Aug-23 00:09N 42°14' W 010°08'20512.9
2016-Aug-22 08:14N 45°27' W 008°30'31211.3
2016-Aug-21 04:33N 49°37' W 003°53'1110.9
2016-Aug-21 03:31N 49°42' W 003°38'1212.4
2016-Aug-21 02:33N 49°48' W 003°23'1312.6
2016-Aug-21 01:34N 49°55' W 003°06'1212.0
2016-Aug-21 00:33N 50°01' W 002°50'95 9.4
2016-Aug-20 14:29N 50°26' W 000°27'1112.0
2016-Aug-20 13:33N 50°29' W 000°10'1110.7
2016-Aug-20 12:31N 50°32' E 000°07'9 9.5
2016-Aug-20 11:33N 50°35' E 000°20'11 9.1
2016-Aug-20 10:19N 50°39' E 000°37'2110.7
2016-Aug-20 08:20N 50°52' E 001°04'1013.3
2016-Aug-20 07:34N 50°58' E 001°16'1413.9
2016-Aug-20 06:33N 51°07' E 001°33'1212.3
2016-Aug-20 05:33N 51°16' E 001°47'1111.1
2016-Aug-20 04:33N 51°25' E 001°56'1010.3
2016-Aug-20 03:33N 51°34' E 002°06'10 9.8
2016-Aug-20 02:31N 51°41' E 002°17'  
Track history (hours):
 
Tides and Currents Weather Stations Pressure Air Temp Water Temp Dewpoint Dewpoint Depression Visibility Wind Speed Wind Dir Waves Ship Positions

Ljuta

Last reported at 2016-Aug-29 21:18 UTC. Time now 2016-Aug-29 23:32 UTC.
Position N 35°45' W 000°36'.

Length 177 m; draft 9.7 m.

Type: Cargo ship. MMSI: 377715000.

Date/timePositionNaut miles runAvg speedWind from/ knotsBaromVisibWave heightAir tempDewpointWater temp
2016-Aug-29 21:18N 35°45' W 000°36'0 0.0
2016-Aug-29 17:06N 35°45' W 000°36'0 0.0
2016-Aug-29 16:09N 35°46' W 000°36'0 0.0
2016-Aug-29 15:24N 35°46' W 000°36'0 0.0
2016-Aug-29 14:18N 35°46' W 000°36'0 0.0
2016-Aug-29 13:33N 35°46' W 000°36'0 0.0
2016-Aug-29 10:27N 35°46' W 000°36'0 0.0
2016-Aug-29 09:30N 35°46' W 000°36'0 0.0
2016-Aug-29 06:10N 35°46' W 000°36'0 0.0
2016-Aug-29 04:03N 35°46' W 000°36'0 0.1
2016-Aug-29 03:33N 35°46' W 000°36'0 0.0
2016-Aug-29 00:03N 35°46' W 000°36'0 0.0
2016-Aug-28 23:33N 35°46' W 000°36'0 0.0
2016-Aug-28 22:33N 35°46' W 000°36'0 0.0
2016-Aug-28 21:33N 35°46' W 000°36'0 0.0
2016-Aug-28 20:33N 35°46' W 000°36'0 0.0
2016-Aug-28 19:33N 35°46' W 000°36'0 0.0
2016-Aug-28 18:33N 35°46' W 000°36'0 0.0
2016-Aug-28 17:06N 35°46' W 000°36'0 0.0
2016-Aug-28 16:33N 35°46' W 000°36'0 0.0
2016-Aug-28 15:30N 35°46' W 000°36'0 0.0
2016-Aug-28 14:27N 35°46' W 000°36'0 0.0
2016-Aug-28 11:27N 35°45' W 000°36'0 0.1
2016-Aug-28 10:27N 35°45' W 000°36'0 0.0
2016-Aug-28 09:33N 35°45' W 000°36'0 0.1
2016-Aug-28 07:33N 35°45' W 000°36'0 0.0
2016-Aug-28 06:33N 35°45' W 000°36'0 0.0
2016-Aug-28 05:27N 35°45' W 000°36'0 0.0
2016-Aug-28 02:33N 35°46' W 000°36'0 0.0
2016-Aug-28 01:33N 35°46' W 000°36'0 0.0
2016-Aug-28 00:21N 35°46' W 000°36'0 0.0
2016-Aug-27 23:33N 35°46' W 000°36'0 0.0
2016-Aug-27 20:24N 35°46' W 000°36'0 0.0
2016-Aug-27 19:12N 35°46' W 000°36'0 0.0
2016-Aug-27 12:30N 35°45' W 000°36'  
2016-Aug-24 21:08N 35°59' W 005°08'814.0
2016-Aug-24 20:34N 35°58' W 005°18'18910.9
2016-Aug-24 03:14N 36°32' W 009°08'912.6
2016-Aug-24 02:31N 36°35' W 009°19'1212.2
2016-Aug-24 01:33N 36°44' W 009°29'1212.1
2016-Aug-24 00:33N 36°54' W 009°35'1312.8
2016-Aug-23 23:33N 37°07' W 009°39'1313.1
2016-Aug-23 22:33N 37°20' W 009°43'1313.2
2016-Aug-23 21:33N 37°33' W 009°46'1312.9
2016-Aug-23 20:33N 37°45' W 009°50'1313.3
2016-Aug-23 19:33N 37°58' W 009°54'1313.1
2016-Aug-23 18:33N 38°11' W 009°58'1413.5
2016-Aug-23 17:33N 38°24' W 010°01'1313.3
2016-Aug-23 16:33N 38°37' W 010°05'1313.1
2016-Aug-23 15:33N 38°50' W 010°06'1413.2
2016-Aug-23 14:30N 39°04' W 010°07'1313.1
2016-Aug-23 13:33N 39°17' W 010°07'1413.4
2016-Aug-23 12:32N 39°30' W 010°06'16413.3
2016-Aug-23 00:09N 42°14' W 010°08'20512.9
2016-Aug-22 08:14N 45°27' W 008°30'31211.3
2016-Aug-21 04:33N 49°37' W 003°53'1110.9
2016-Aug-21 03:31N 49°42' W 003°38'1212.4
2016-Aug-21 02:33N 49°48' W 003°23'1312.6
2016-Aug-21 01:34N 49°55' W 003°06'1212.0
2016-Aug-21 00:33N 50°01' W 002°50'95 9.4
2016-Aug-20 14:29N 50°26' W 000°27'1112.0
2016-Aug-20 13:33N 50°29' W 000°10'1110.7
2016-Aug-20 12:31N 50°32' E 000°07'9 9.5
2016-Aug-20 11:33N 50°35' E 000°20'11 9.1
2016-Aug-20 10:19N 50°39' E 000°37'2110.7
2016-Aug-20 08:20N 50°52' E 001°04'1013.3
2016-Aug-20 07:34N 50°58' E 001°16'1413.9
2016-Aug-20 06:33N 51°07' E 001°33'1212.3
2016-Aug-20 05:33N 51°16' E 001°47'1111.1
2016-Aug-20 04:33N 51°25' E 001°56'1010.3
2016-Aug-20 03:33N 51°34' E 002°06'10 9.8
2016-Aug-20 02:31N 51°41' E 002°17'  

Dump ship's entire track history